Time,TemperatureF,DewpointF,PressureIn,WindDirection,WindDirectionDegrees,WindSpeedMPH,WindSpeedGustMPH,Humidity,HourlyPrecipIn,Conditions,Clouds,dailyrainin,SoftwareType,DateUTC
2013-01-07 00:00:00,31.6,28.2,30.04,NNW,338,2.4,11.5,87,0.00,CLR,,0.01,WeatherDisplay:10.37,2013-01-07 05:00:00,
2013-01-07 00:02:00,31.6,28.2,30.04,NW,315,7.8,7.8,87,0.00,RA,,0.00,WeatherDisplay:10.37,2013-01-07 05:02:00,
2013-01-07 00:03:00,31.6,28.2,30.04,NW,315,6.1,8.1,87,0.00,RA,,0.00,WeatherDisplay:10.37,2013-01-07 05:03:00,
2013-01-07 00:08:00,31.6,28.2,30.04,NW,315,4.6,6.9,87,0.00,RA,,0.00,WeatherDisplay:10.37,2013-01-07 05:08:00,
2013-01-07 00:10:00,31.6,28.5,30.04,NW,314,5.0,13.0,88,0.00,CLR,CLR,0.00,WeatherDisplay:10.37,2013-01-07 05:10:00,
2013-01-07 00:16:00,31.5,28.3,30.04,NNW,338,8.7,8.7,88,0.00,CLR,,0.00,WeatherDisplay:10.37,2013-01-07 05:16:00,
2013-01-07 00:21:00,31.3,28.4,30.04,NW,315,11.4,11.4,89,0.00,CLR,,0.00,WeatherDisplay:10.37,2013-01-07 05:21:00,
2013-01-07 00:26:00,30.7,27.9,30.05,NNW,338,3.4,10.4,89,0.00,CLR,,0.00,WeatherDisplay:10.37,2013-01-07 05:26:00,
2013-01-07 00:31:00,30.6,28.0,30.05,WNW,292,3.1,4.6,90,0.00,CLR,,0.00,WeatherDisplay:10.37,2013-01-07 05:31:00,
2013-01-07 00:36:00,30.4,28.1,30.05,NW,315,4.3,9.2,91,0.00,CLR,,0.00,WeatherDisplay:10.37,2013-01-07 05:36:00,
2013-01-07 00:41:00,30.6,28.2,30.06,WNW,292,9.3,10.4,91,0.00,CLR,,0.00,WeatherDisplay:10.37,2013-01-07 05:41:00,
2013-01-07 00:46:00,30.4,27.8,30.06,NW,315,8.7,9.2,90,0.00,CLR,,0.00,WeatherDisplay:10.37,2013-01-07 05:46:00,
2013-01-07 00:51:00,30.6,27.7,30.06,NW,315,9.0,9.0,89,0.00,CLR,,0.00,WeatherDisplay:10.37,2013-01-07 05:51:00,
2013-01-07 00:56:00,30.6,27.7,30.06,NNW,338,3.4,8.1,89,0.00,CLR,,0.00,WeatherDisplay:10.37,2013-01-07 05:56:00,
2013-01-07 01:01:00,30.4,27.5,30.06,NNW,338,4.9,4.9,89,0.00,CLR,,0.00,WeatherDisplay:10.37,2013-01-07 06:01:00,
2013-01-07 01:06:00,30.4,27.8,30.06,NW,315,9.0,9.0,90,0.00,CLR,,0.00,WeatherDisplay:10.37,2013-01-07 06:06:00,
2013-01-07 01:11:00,30.4,27.5,30.06,NNW,338,6.1,11.5,89,0.00,CLR,,0.00,WeatherDisplay:10.37,2013-01-07 06:11:00,
2013-01-07 01:16:00,30.4,27.5,30.06,NNW,338,5.2,5.8,89,0.00,CLR,,0.00,WeatherDisplay:10.37,2013-01-07 06:16:00,
2013-01-07 01:21:00,30.4,27.5,30.06,NNW,338,4.0,8.1,89,0.00,CLR,,0.00,WeatherDisplay:10.37,2013-01-07 06:21:00,
2013-01-07 01:26:00,30.4,27.5,30.06,NNW,338,9.0,9.0,89,0.00,CLR,,0.00,WeatherDisplay:10.37,2013-01-07 06:26:00,
2013-01-07 01:31:00,30.4,27.5,30.06,NNW,338,4.9,6.9,89,0.00,CLR,,0.00,WeatherDisplay:10.37,2013-01-07 06:31:00,
2013-01-07 01:36:00,30.4,27.3,30.07,NNW,338,5.2,8.1,88,0.00,CLR,,0.00,WeatherDisplay:10.37,2013-01-07 06:36:00,
2013-01-07 01:41:00,30.4,27.3,30.07,NW,315,6.1,10.4,88,0.00,CLR,,0.00,WeatherDisplay:10.37,2013-01-07 06:41:00,
2013-01-07 01:46:00,30.4,27.3,30.07,NW,315,8.4,8.4,88,0.00,CLR,,0.00,WeatherDisplay:10.37,2013-01-07 06:46:00,
2013-01-07 01:51:00,30.4,27.3,30.08,NW,315,5.2,11.5,88,0.00,CLR,,0.00,WeatherDisplay:10.37,2013-01-07 06:51:00,
2013-01-07 01:56:00,30.2,27.1,30.08,NNW,338,8.4,8.4,88,0.00,CLR,,0.00,WeatherDisplay:10.37,2013-01-07 06:56:00,
2013-01-07 02:01:00,30.2,27.3,30.08,West,270,9.9,10.4,89,0.00,CLR,,0.00,WeatherDisplay:10.37,2013-01-07 07:01:00,
2013-01-07 02:07:00,30.2,27.3,30.08,NW,315,6.4,8.1,89,0.00,CLR,,0.00,WeatherDisplay:10.37,2013-01-07 07:07:00,
2013-01-07 02:12:00,30.0,26.9,30.08,NNW,338,8.1,8.1,88,0.00,CLR,,0.00,WeatherDisplay:10.37,2013-01-07 07:12:00,
2013-01-07 02:17:00,30.0,26.9,30.08,NNW,338,11.4,11.4,88,0.00,CLR,,0.00,WeatherDisplay:10.37,2013-01-07 07:17:00,
2013-01-07 02:22:00,29.8,26.7,30.09,West,270,6.1,12.7,88,0.00,CLR,,0.00,WeatherDisplay:10.37,2013-01-07 07:22:00,
2013-01-07 02:27:00,29.8,26.7,30.09,NW,315,7.6,9.2,88,0.00,CLR,,0.00,WeatherDisplay:10.37,2013-01-07 07:27:00,
2013-01-07 02:32:00,29.8,26.7,30.10,North,0,3.1,10.4,88,0.00,CLR,,0.00,WeatherDisplay:10.37,2013-01-07 07:32:00,
2013-01-07 02:37:00,29.8,26.7,30.09,NW,315,8.1,11.5,88,0.00,CLR,,0.00,WeatherDisplay:10.37,2013-01-07 07:37:00,
2013-01-07 02:42:00,29.8,26.7,30.10,WNW,292,10.2,10.2,88,0.00,CLR,,0.00,WeatherDisplay:10.37,2013-01-07 07:42:00,
2013-01-07 02:47:00,29.8,26.7,30.10,NW,315,4.0,9.2,88,0.00,CLR,,0.00,WeatherDisplay:10.37,2013-01-07 07:47:00,
2013-01-07 02:52:00,29.8,26.7,30.10,NW,315,5.2,8.1,88,0.00,CLR,,0.00,WeatherDisplay:10.37,2013-01-07 07:52:00,
2013-01-07 02:57:00,29.8,26.7,30.10,NNW,338,5.8,5.8,88,0.00,CLR,,0.00,WeatherDisplay:10.37,2013-01-07 07:57:00,
2013-01-07 03:02:00,29.7,26.5,30.10,NNW,338,3.1,3.5,88,0.00,CLR,,0.00,WeatherDisplay:10.37,2013-01-07 08:02:00,
2013-01-07 03:07:00,29.7,26.5,30.10,NW,315,8.4,9.2,88,0.00,CLR,,0.00,WeatherDisplay:10.37,2013-01-07 08:07:00,
2013-01-07 03:12:00,29.5,26.4,30.11,NNW,338,7.8,8.1,88,0.00,CLR,,0.00,WeatherDisplay:10.37,2013-01-07 08:12:00,
2013-01-07 03:17:00,29.5,26.4,30.11,NNW,338,3.7,10.4,88,0.00,CLR,,0.00,WeatherDisplay:10.37,2013-01-07 08:17:00,
2013-01-07 03:22:00,29.5,26.4,30.11,NNW,338,5.8,5.8,88,0.00,CLR,,0.00,WeatherDisplay:10.37,2013-01-07 08:22:00,
2013-01-07 03:27:00,29.5,26.4,30.11,NNW,338,7.0,11.5,88,0.00,CLR,,0.00,WeatherDisplay:10.37,2013-01-07 08:27:00,
2013-01-07 03:32:00,29.3,26.2,30.11,NW,315,7.6,10.4,88,0.00,CLR,,0.00,WeatherDisplay:10.37,2013-01-07 08:32:00,
2013-01-07 03:37:00,29.3,26.2,30.12,NNW,338,4.3,6.9,88,0.00,CLR,,0.00,WeatherDisplay:10.37,2013-01-07 08:37:00,
2013-01-07 03:42:00,29.3,26.2,30.12,NNW,338,6.1,6.9,88,0.00,CLR,,0.00,WeatherDisplay:10.37,2013-01-07 08:42:00,
2013-01-07 03:47:00,29.1,26.0,30.12,NNW,338,7.8,7.8,88,0.00,CLR,,0.00,WeatherDisplay:10.37,2013-01-07 08:47:00,
2013-01-07 03:52:00,29.1,26.0,30.13,NW,315,7.3,7.3,88,0.00,CLR,,0.00,WeatherDisplay:10.37,2013-01-07 08:52:00,
2013-01-07 03:57:00,29.1,26.0,30.13,NNW,338,5.5,8.1,88,0.00,CLR,,0.00,WeatherDisplay:10.37,2013-01-07 08:57:00,
2013-01-07 04:02:00,29.1,26.0,30.13,NW,315,6.1,6.1,88,0.00,CLR,,0.00,WeatherDisplay:10.37,2013-01-07 09:02:00,
2013-01-07 04:07:00,29.1,25.7,30.13,NW,315,11.1,11.1,87,0.00,CLR,,0.00,WeatherDisplay:10.37,2013-01-07 09:07:00,
2013-01-07 04:12:00,29.1,25.7,30.13,NNW,338,11.7,11.7,87,0.00,CLR,,0.00,WeatherDisplay:10.37,2013-01-07 09:12:00,
2013-01-07 04:17:00,29.1,25.7,30.13,NW,315,5.2,11.5,87,0.00,CLR,,0.00,WeatherDisplay:10.37,2013-01-07 09:17:00,
2013-01-07 04:22:00,29.1,25.7,30.14,WNW,292,9.6,9.6,87,0.00,CLR,,0.00,WeatherDisplay:10.37,2013-01-07 09:22:00,
2013-01-07 04:27:00,28.9,25.6,30.13,West,270,4.9,6.9,87,0.00,CLR,,0.00,WeatherDisplay:10.37,2013-01-07 09:27:00,
2013-01-07 04:32:00,28.9,25.8,30.14,NNW,338,13.6,13.6,88,0.00,CLR,,0.00,WeatherDisplay:10.37,2013-01-07 09:32:00,
2013-01-07 04:37:00,28.8,25.7,30.13,NNW,338,2.8,11.5,88,0.00,CLR,,0.00,WeatherDisplay:10.37,2013-01-07 09:37:00,
2013-01-07 04:42:00,28.8,25.7,30.14,NNW,338,4.0,8.1,88,0.00,CLR,,0.00,WeatherDisplay:10.37,2013-01-07 09:42:00,
2013-01-07 04:47:00,28.6,25.5,30.14,WNW,292,8.4,8.4,88,0.00,CLR,,0.00,WeatherDisplay:10.37,2013-01-07 09:47:00,
2013-01-07 04:52:00,28.6,25.5,30.14,NNW,338,2.4,5.8,88,0.00,CLR,,0.00,WeatherDisplay:10.37,2013-01-07 09:52:00,
2013-01-07 04:57:00,28.6,25.5,30.14,NW,315,9.9,9.9,88,0.00,CLR,,0.00,WeatherDisplay:10.37,2013-01-07 09:57:00,
2013-01-07 05:02:00,28.6,25.5,30.14,NW,315,7.6,9.2,88,0.00,CLR,,0.00,WeatherDisplay:10.37,2013-01-07 10:02:00,
2013-01-07 05:07:00,28.6,25.5,30.14,NNW,338,2.4,6.9,88,0.00,CLR,,0.00,WeatherDisplay:10.37,2013-01-07 10:07:00,
2013-01-07 05:12:00,28.6,25.8,30.15,NW,315,7.8,8.1,89,0.00,CLR,,0.00,WeatherDisplay:10.37,2013-01-07 10:12:00,
2013-01-07 05:17:00,28.4,25.6,30.15,NNW,338,2.4,5.8,89,0.00,CLR,,0.00,WeatherDisplay:10.37,2013-01-07 10:17:00,
2013-01-07 05:22:00,28.4,25.6,30.15,NW,315,3.7,8.1,89,0.00,CLR,,0.00,WeatherDisplay:10.37,2013-01-07 10:22:00,
2013-01-07 05:27:00,28.4,25.3,30.16,WSW,248,7.6,8.1,88,0.00,CLR,,0.00,WeatherDisplay:10.37,2013-01-07 10:27:00,
2013-01-07 05:32:00,28.4,25.3,30.16,NW,315,3.1,5.8,88,0.00,CLR,,0.00,WeatherDisplay:10.37,2013-01-07 10:32:00,
2013-01-07 05:37:00,28.4,25.3,30.16,NNW,338,0.9,3.5,88,0.00,CLR,,0.00,WeatherDisplay:10.37,2013-01-07 10:37:00,
2013-01-07 05:42:00,28.4,25.3,30.16,NNE,22,1.5,5.8,88,0.00,CLR,,0.00,WeatherDisplay:10.37,2013-01-07 10:42:00,
2013-01-07 05:47:00,28.4,25.3,30.16,WNW,292,7.6,7.6,88,0.00,CLR,,0.00,WeatherDisplay:10.37,2013-01-07 10:47:00,
2013-01-07 05:52:00,28.4,25.3,30.17,NW,315,5.5,5.8,88,0.00,CLR,,0.00,WeatherDisplay:10.37,2013-01-07 10:52:00,
2013-01-07 05:57:00,28.2,25.1,30.17,NNW,338,3.1,5.8,88,0.00,CLR,,0.00,WeatherDisplay:10.37,2013-01-07 10:57:00,
2013-01-07 06:02:00,28.2,25.1,30.17,WNW,292,3.7,6.9,88,0.00,CLR,,0.00,WeatherDisplay:10.37,2013-01-07 11:02:00,
2013-01-07 06:07:00,28.2,25.1,30.17,North,0,2.8,6.9,88,0.00,CLR,,0.00,WeatherDisplay:10.37,2013-01-07 11:07:00,
2013-01-07 06:12:00,28.2,25.1,30.18,NNW,338,4.3,8.1,88,0.00,CLR,,0.00,WeatherDisplay:10.37,2013-01-07 11:12:00,
2013-01-07 06:17:00,28.2,25.1,30.18,NW,315,4.3,4.3,88,0.00,CLR,,0.00,WeatherDisplay:10.37,2013-01-07 11:17:00,
2013-01-07 06:22:00,28.0,24.9,30.18,NNW,338,1.8,4.6,88,0.00,CLR,,0.00,WeatherDisplay:10.37,2013-01-07 11:22:00,
2013-01-07 06:27:00,28.0,24.9,30.18,NNW,338,2.1,2.3,88,0.00,CLR,,0.00,WeatherDisplay:10.37,2013-01-07 11:27:00,
2013-01-07 06:32:00,28.0,24.9,30.18,West,270,5.2,5.8,88,0.00,CLR,,0.00,WeatherDisplay:10.37,2013-01-07 11:32:00,
2013-01-07 06:37:00,28.0,24.9,30.18,WNW,292,2.5,2.5,88,0.00,CLR,,0.00,WeatherDisplay:10.37,2013-01-07 11:37:00,
2013-01-07 06:42:00,28.0,24.9,30.18,NNW,338,2.4,2.4,88,0.00,CLR,,0.00,WeatherDisplay:10.37,2013-01-07 11:42:00,
2013-01-07 06:47:00,28.0,24.9,30.18,NW,315,1.2,6.9,88,0.00,CLR,,0.00,WeatherDisplay:10.37,2013-01-07 11:47:00,
2013-01-07 06:52:00,28.0,24.9,30.18,NW,315,2.4,4.6,88,0.00,CLR,,0.00,WeatherDisplay:10.37,2013-01-07 11:52:00,
2013-01-07 06:57:00,28.0,24.9,30.19,West,270,6.1,6.1,88,0.00,CLR,,0.00,WeatherDisplay:10.37,2013-01-07 11:57:00,
2013-01-07 07:03:00,28.0,24.9,30.19,West,270,4.0,4.0,88,0.00,CLR,,0.00,WeatherDisplay:10.37,2013-01-07 12:03:00,
2013-01-07 07:08:00,28.0,24.9,30.20,NW,315,3.1,4.6,88,0.00,CLR,,0.00,WeatherDisplay:10.37,2013-01-07 12:08:00,
2013-01-07 07:13:00,28.0,24.9,30.20,West,270,4.3,4.6,88,0.00,CLR,,0.00,WeatherDisplay:10.37,2013-01-07 12:13:00,
2013-01-07 07:18:00,28.0,24.9,30.20,NNW,338,2.1,2.3,88,0.00,CLR,,0.00,WeatherDisplay:10.37,2013-01-07 12:18:00,
2013-01-07 07:23:00,28.0,24.9,30.20,West,270,1.8,2.3,88,0.00,CLR,,0.00,WeatherDisplay:10.37,2013-01-07 12:23:00,
2013-01-07 07:28:00,28.0,24.9,30.21,NW,315,2.1,2.3,88,0.00,CLR,,0.00,WeatherDisplay:10.37,2013-01-07 12:28:00,
2013-01-07 07:33:00,28.0,24.9,30.21,NW,315,2.8,4.6,88,0.00,CLR,,0.00,WeatherDisplay:10.37,2013-01-07 12:33:00,
2013-01-07 07:38:00,28.0,24.9,30.21,NW,315,2.8,3.5,88,0.00,CLR,,0.00,WeatherDisplay:10.37,2013-01-07 12:38:00,
2013-01-07 07:43:00,28.0,24.9,30.21,NNW,338,3.1,3.5,88,0.00,CLR,,0.00,WeatherDisplay:10.37,2013-01-07 12:43:00,
2013-01-07 07:48:00,28.0,24.9,30.21,NW,315,0.6,8.1,88,0.00,CLR,,0.00,WeatherDisplay:10.37,2013-01-07 12:48:00,
2013-01-07 07:53:00,28.0,24.9,30.21,NW,315,2.1,3.5,88,0.00,CLR,,0.00,WeatherDisplay:10.37,2013-01-07 12:53:00,
2013-01-07 07:58:00,28.0,24.9,30.22,North,0,1.5,2.3,88,0.00,CLR,,0.00,WeatherDisplay:10.37,2013-01-07 12:58:00,
2013-01-07 08:03:00,28.0,24.9,30.22,West,270,2.8,3.5,88,0.00,CLR,,0.00,WeatherDisplay:10.37,2013-01-07 13:03:00,
2013-01-07 08:08:00,28.0,24.9,30.22,NW,315,3.7,3.7,88,0.00,CLR,,0.00,WeatherDisplay:10.37,2013-01-07 13:08:00,
2013-01-07 08:13:00,28.0,24.9,30.22,West,270,2.5,3.5,88,0.00,CLR,,0.00,WeatherDisplay:10.37,2013-01-07 13:13:00,
2013-01-07 08:18:00,27.9,24.8,30.23,WNW,292,6.1,8.1,88,0.00,CLR,,0.00,WeatherDisplay:10.37,2013-01-07 13:18:00,
2013-01-07 08:23:00,28.0,24.9,30.23,NW,315,1.5,4.6,88,0.00,CLR,,0.00,WeatherDisplay:10.37,2013-01-07 13:23:00,
2013-01-07 08:28:00,27.9,24.8,30.23,NW,315,2.5,6.9,88,0.00,CLR,,0.00,WeatherDisplay:10.37,2013-01-07 13:28:00,
2013-01-07 08:33:00,28.0,24.9,30.23,NW,315,3.1,4.6,88,0.00,CLR,,0.00,WeatherDisplay:10.37,2013-01-07 13:33:00,
2013-01-07 08:38:00,28.0,24.9,30.23,West,270,2.4,4.6,88,0.00,CLR,,0.00,WeatherDisplay:10.37,2013-01-07 13:38:00,
2013-01-07 08:43:00,28.0,24.9,30.23,WNW,292,3.1,5.8,88,0.00,CLR,,0.00,WeatherDisplay:10.37,2013-01-07 13:43:00,
2013-01-07 08:48:00,28.0,24.9,30.23,NW,315,2.4,5.8,88,0.00,CLR,,0.00,WeatherDisplay:10.37,2013-01-07 13:48:00,
2013-01-07 08:53:00,28.0,24.9,30.24,West,270,5.8,5.8,88,0.00,CLR,,0.00,WeatherDisplay:10.37,2013-01-07 13:53:00,
2013-01-07 08:58:00,28.0,24.9,30.24,WSW,248,4.3,4.6,88,0.00,CLR,,0.00,WeatherDisplay:10.37,2013-01-07 13:58:00,
2013-01-07 09:03:00,28.0,24.7,30.24,WNW,292,8.4,8.4,87,0.00,CLR,,0.00,WeatherDisplay:10.37,2013-01-07 14:03:00,
2013-01-07 09:08:00,28.0,24.7,30.24,West,270,3.7,5.8,87,0.00,CLR,,0.00,WeatherDisplay:10.37,2013-01-07 14:08:00,
2013-01-07 09:13:00,28.0,24.9,30.25,West,270,2.1,2.3,88,0.00,CLR,,0.00,WeatherDisplay:10.37,2013-01-07 14:13:00,
2013-01-07 09:18:00,28.0,24.9,30.26,NW,315,3.4,5.8,88,0.00,CLR,,0.00,WeatherDisplay:10.37,2013-01-07 14:18:00,
2013-01-07 09:23:00,28.0,24.9,30.26,West,270,2.4,3.5,88,0.00,CLR,,0.00,WeatherDisplay:10.37,2013-01-07 14:23:00,
2013-01-07 09:28:00,28.0,24.9,30.26,NW,315,5.2,5.2,88,0.00,CLR,,0.00,WeatherDisplay:10.37,2013-01-07 14:28:00,
2013-01-07 09:33:00,28.0,24.7,30.26,WSW,248,4.9,6.9,87,0.00,CLR,,0.00,WeatherDisplay:10.37,2013-01-07 14:33:00,
2013-01-07 09:38:00,28.2,25.1,30.27,West,270,2.8,3.5,88,0.00,CLR,,0.00,WeatherDisplay:10.37,2013-01-07 14:38:00,
2013-01-07 09:43:00,28.2,24.8,30.27,WNW,292,2.8,2.8,87,0.00,CLR,,0.00,WeatherDisplay:10.37,2013-01-07 14:43:00,
2013-01-07 09:48:00,28.4,25.0,30.27,NW,315,4.3,4.3,87,0.00,CLR,,0.00,WeatherDisplay:10.37,2013-01-07 14:48:00,
2013-01-07 09:53:00,28.4,25.0,30.27,WNW,292,4.0,4.0,87,0.00,CLR,,0.00,WeatherDisplay:10.37,2013-01-07 14:53:00,
2013-01-07 09:58:00,28.4,24.7,30.27,WNW,292,4.6,5.8,86,0.00,CLR,,0.00,WeatherDisplay:10.37,2013-01-07 14:58:00,
2013-01-07 10:03:00,28.4,24.7,30.27,NNW,338,2.1,5.8,86,0.00,CLR,,0.00,WeatherDisplay:10.37,2013-01-07 15:03:00,
2013-01-07 10:08:00,28.6,24.9,30.28,NNW,338,1.8,4.6,86,0.00,CLR,,0.00,WeatherDisplay:10.37,2013-01-07 15:08:00,
2013-01-07 10:13:00,28.8,25.1,30.28,NW,315,3.4,4.6,86,0.00,CLR,,0.00,WeatherDisplay:10.37,2013-01-07 15:13:00,
2013-01-07 10:18:00,28.8,25.1,30.28,NW,315,5.8,8.1,86,0.00,CLR,,0.00,WeatherDisplay:10.37,2013-01-07 15:18:00,
2013-01-07 10:23:00,28.9,25.3,30.28,NNW,338,3.1,3.5,86,0.00,CLR,,0.00,WeatherDisplay:10.37,2013-01-07 15:23:00,
2013-01-07 10:28:00,29.1,25.5,30.29,West,270,4.9,4.9,86,0.00,CLR,,0.00,WeatherDisplay:10.37,2013-01-07 15:28:00,
2013-01-07 10:33:00,28.9,25.3,30.29,NNW,338,3.1,3.5,86,0.00,CLR,,0.00,WeatherDisplay:10.37,2013-01-07 15:33:00,
2013-01-07 10:38:00,28.9,25.0,30.28,NW,315,5.5,5.8,85,0.00,CLR,,0.00,WeatherDisplay:10.37,2013-01-07 15:38:00,
2013-01-07 10:43:00,29.1,25.2,30.28,NW,315,7.3,7.3,85,0.00,CLR,,0.00,WeatherDisplay:10.37,2013-01-07 15:43:00,
2013-01-07 10:48:00,28.9,25.0,30.29,NNW,338,2.8,4.6,85,0.00,CLR,,0.00,WeatherDisplay:10.37,2013-01-07 15:48:00,
2013-01-07 10:53:00,28.9,25.0,30.29,NW,315,5.8,5.8,85,0.00,CLR,,0.00,WeatherDisplay:10.37,2013-01-07 15:53:00,
2013-01-07 10:58:00,29.1,25.2,30.28,WSW,248,6.1,6.1,85,0.00,CLR,,0.00,WeatherDisplay:10.37,2013-01-07 15:58:00,
2013-01-07 11:03:00,29.1,25.2,30.29,WNW,292,5.8,5.8,85,0.00,CLR,,0.00,WeatherDisplay:10.37,2013-01-07 16:03:00,
2013-01-07 11:08:00,29.1,25.2,30.29,NW,315,4.3,5.8,85,0.00,CLR,,0.00,WeatherDisplay:10.37,2013-01-07 16:08:00,
2013-01-07 11:13:00,29.1,25.2,30.28,West,270,3.1,4.6,85,0.00,CLR,,0.00,WeatherDisplay:10.37,2013-01-07 16:13:00,
2013-01-07 11:18:00,29.1,25.2,30.28,WNW,292,4.3,6.9,85,0.00,CLR,,0.00,WeatherDisplay:10.37,2013-01-07 16:18:00,
2013-01-07 11:23:00,29.3,25.4,30.28,SW,225,7.0,7.0,85,0.00,CLR,,0.00,WeatherDisplay:10.37,2013-01-07 16:23:00,
2013-01-07 11:28:00,29.3,25.1,30.28,West,270,4.0,5.8,84,0.00,CLR,,0.00,WeatherDisplay:10.37,2013-01-07 16:28:00,
2013-01-07 11:33:00,29.5,25.0,30.28,NNW,338,2.8,4.6,83,0.00,CLR,,0.00,WeatherDisplay:10.37,2013-01-07 16:33:00,
2013-01-07 11:38:00,29.7,25.1,30.28,WNW,292,6.7,6.7,83,0.00,CLR,,0.00,WeatherDisplay:10.37,2013-01-07 16:38:00,
2013-01-07 11:43:00,29.5,25.0,30.28,NNW,338,4.3,4.6,83,0.00,CLR,,0.00,WeatherDisplay:10.37,2013-01-07 16:43:00,
2013-01-07 11:48:00,29.7,25.1,30.28,NW,315,2.4,2.4,83,0.00,CLR,,0.00,WeatherDisplay:10.37,2013-01-07 16:48:00,
2013-01-07 11:53:00,29.8,25.3,30.28,NNW,338,3.1,3.1,83,0.00,CLR,,0.00,WeatherDisplay:10.37,2013-01-07 16:53:00,
2013-01-07 11:58:00,29.8,25.3,30.28,NW,315,2.1,2.3,83,0.00,CLR,,0.00,WeatherDisplay:10.37,2013-01-07 16:58:00,
2013-01-07 12:03:00,29.7,25.1,30.28,SW,225,2.4,3.5,83,0.00,CLR,,0.00,WeatherDisplay:10.37,2013-01-07 17:03:00,
2013-01-07 12:08:00,29.5,25.0,30.28,West,270,4.3,9.2,83,0.00,CLR,,0.00,WeatherDisplay:10.37,2013-01-07 17:08:00,
2013-01-07 12:13:00,29.5,25.0,30.27,West,270,3.7,5.8,83,0.00,CLR,,0.00,WeatherDisplay:10.37,2013-01-07 17:13:00,
2013-01-07 12:18:00,29.5,25.0,30.27,West,270,3.7,5.8,83,0.00,CLR,,0.00,WeatherDisplay:10.37,2013-01-07 17:18:00,
2013-01-07 12:23:00,29.5,25.0,30.27,WNW,292,9.0,9.0,83,0.00,CLR,,0.00,WeatherDisplay:10.37,2013-01-07 17:23:00,
2013-01-07 12:28:00,29.5,25.0,30.27,WNW,292,6.4,6.4,83,0.00,CLR,,0.00,WeatherDisplay:10.37,2013-01-07 17:28:00,
2013-01-07 12:33:00,29.7,25.1,30.27,West,270,4.3,5.8,83,0.00,CLR,,0.00,WeatherDisplay:10.37,2013-01-07 17:33:00,
2013-01-07 12:38:00,29.5,24.7,30.27,West,270,2.4,3.5,82,0.00,CLR,,0.00,WeatherDisplay:10.37,2013-01-07 17:38:00,
2013-01-07 12:43:00,29.5,24.7,30.27,WNW,292,5.2,6.9,82,0.00,CLR,,0.00,WeatherDisplay:10.37,2013-01-07 17:43:00,
2013-01-07 12:48:00,29.5,24.7,30.27,WSW,248,6.1,6.1,82,0.00,CLR,,0.00,WeatherDisplay:10.37,2013-01-07 17:48:00,
2013-01-07 12:53:00,29.7,24.5,30.27,West,270,7.0,7.0,81,0.00,CLR,,0.00,WeatherDisplay:10.37,2013-01-07 17:53:00,
2013-01-07 12:58:00,29.7,24.2,30.26,West,270,4.9,8.1,80,0.00,CLR,,0.00,WeatherDisplay:10.37,2013-01-07 17:58:00,
2013-01-07 13:03:00,29.7,24.2,30.26,WNW,292,6.1,8.1,80,0.00,CLR,,0.00,WeatherDisplay:10.37,2013-01-07 18:03:00,
2013-01-07 13:08:00,29.8,24.4,30.26,NW,315,4.6,4.6,80,0.00,CLR,,0.00,WeatherDisplay:10.37,2013-01-07 18:08:00,
2013-01-07 13:13:00,29.7,23.9,30.26,WSW,248,1.8,5.8,79,0.00,CLR,,0.00,WeatherDisplay:10.37,2013-01-07 18:13:00,
2013-01-07 13:18:00,29.7,24.2,30.26,West,270,5.8,5.8,80,0.00,CLR,,0.00,WeatherDisplay:10.37,2013-01-07 18:18:00,
2013-01-07 13:23:00,29.8,24.4,30.26,WNW,292,2.1,3.5,80,0.00,CLR,,0.00,WeatherDisplay:10.37,2013-01-07 18:23:00,
2013-01-07 13:28:00,30.2,24.5,30.26,WNW,292,7.0,7.0,79,0.00,CLR,,0.00,WeatherDisplay:10.37,2013-01-07 18:28:00,
2013-01-07 13:33:00,29.8,24.1,30.26,West,270,2.8,5.8,79,0.00,CLR,,0.00,WeatherDisplay:10.37,2013-01-07 18:33:00,
2013-01-07 13:38:00,30.0,24.3,30.26,WSW,248,4.3,4.3,79,0.00,CLR,,0.00,WeatherDisplay:10.37,2013-01-07 18:38:00,
2013-01-07 13:43:00,29.8,24.1,30.26,West,270,5.2,5.8,79,0.00,CLR,,0.00,WeatherDisplay:10.37,2013-01-07 18:43:00,
2013-01-07 13:48:00,30.0,24.3,30.26,NW,315,6.1,6.1,79,0.00,CLR,,0.00,WeatherDisplay:10.37,2013-01-07 18:48:00,
2013-01-07 13:53:00,30.2,24.5,30.25,NW,315,8.4,8.4,79,0.00,CLR,,0.00,WeatherDisplay:10.37,2013-01-07 18:53:00,
2013-01-07 13:58:00,30.2,24.2,30.25,NNW,338,2.4,3.5,78,0.00,CLR,,0.00,WeatherDisplay:10.37,2013-01-07 18:58:00,
2013-01-07 14:03:00,30.4,24.3,30.26,North,0,1.5,3.5,78,0.00,CLR,,0.00,WeatherDisplay:10.37,2013-01-07 19:03:00,
2013-01-07 14:08:00,30.6,24.5,30.25,WSW,248,6.1,6.1,78,0.00,CLR,,0.00,WeatherDisplay:10.37,2013-01-07 19:08:00,
2013-01-07 14:13:00,30.4,24.3,30.25,NW,315,2.4,4.6,78,0.00,CLR,,0.00,WeatherDisplay:10.37,2013-01-07 19:13:00,
2013-01-07 14:18:00,30.6,24.2,30.25,WSW,248,3.4,6.9,77,0.00,CLR,,0.00,WeatherDisplay:10.37,2013-01-07 19:18:00,
2013-01-07 14:23:00,30.6,24.2,30.24,WNW,292,3.1,3.5,77,0.00,CLR,,0.00,WeatherDisplay:10.37,2013-01-07 19:23:00,
2013-01-07 14:28:00,30.7,24.7,30.25,NNW,338,1.5,2.3,78,0.00,CLR,,0.00,WeatherDisplay:10.37,2013-01-07 19:28:00,
2013-01-07 14:33:00,31.1,24.4,30.25,WNW,292,2.1,4.6,76,0.00,CLR,,0.00,WeatherDisplay:10.37,2013-01-07 19:33:00,
2013-01-07 14:38:00,31.1,24.7,30.25,North,0,2.1,2.3,77,0.00,CLR,,0.00,WeatherDisplay:10.37,2013-01-07 19:38:00,
2013-01-07 14:43:00,31.3,24.6,30.24,NW,315,2.5,2.5,76,0.00,CLR,,0.00,WeatherDisplay:10.37,2013-01-07 19:43:00,
2013-01-07 14:48:00,31.3,24.6,30.24,NNW,338,3.7,3.7,76,0.00,CLR,,0.00,WeatherDisplay:10.37,2013-01-07 19:48:00,
2013-01-07 14:53:00,31.3,24.3,30.24,NNW,338,2.4,4.6,75,0.00,CLR,,0.00,WeatherDisplay:10.37,2013-01-07 19:53:00,
2013-01-07 14:58:00,31.6,24.6,30.24,WNW,292,4.9,4.9,75,0.00,CLR,,0.00,WeatherDisplay:10.37,2013-01-07 19:58:00,
2013-01-07 15:03:00,31.5,24.4,30.25,NW,315,2.4,3.5,75,0.00,CLR,,0.00,WeatherDisplay:10.37,2013-01-07 20:03:00,
2013-01-07 15:08:00,31.1,24.1,30.25,NNW,338,1.2,2.3,75,0.00,CLR,,0.00,WeatherDisplay:10.37,2013-01-07 20:08:00,
2013-01-07 15:13:00,31.1,24.4,30.25,NNW,338,0.6,1.1,76,0.00,CLR,,0.00,WeatherDisplay:10.37,2013-01-07 20:13:00,
2013-01-07 15:18:00,31.3,24.6,30.25,NNW,338,1.8,1.8,76,0.00,CLR,,0.00,WeatherDisplay:10.37,2013-01-07 20:18:00,
2013-01-07 15:19:00,31.5,24.4,30.25,North,0,3.4,3.4,75,0.00,CLR,,0.00,WeatherDisplay:10.37,2013-01-07 20:19:00,
2013-01-07 15:25:00,31.8,24.5,30.25,NNW,338,1.5,4.6,74,0.00,CLR,,0.00,WeatherDisplay:10.37,2013-01-07 20:25:00,
2013-01-07 15:30:00,32.0,24.3,30.25,NW,315,1.8,1.8,73,0.00,CLR,,0.00,WeatherDisplay:10.37,2013-01-07 20:30:00,
2013-01-07 15:35:00,32.2,24.5,30.25,NW,315,1.2,2.3,73,0.00,CLR,,0.00,WeatherDisplay:10.37,2013-01-07 20:35:00,
2013-01-07 15:40:00,32.7,25.0,30.25,NW,315,1.2,1.2,73,0.00,CLR,,0.00,WeatherDisplay:10.37,2013-01-07 20:40:00,
2013-01-07 15:45:00,32.7,25.0,30.25,WSW,248,4.0,4.6,73,0.00,CLR,,0.00,WeatherDisplay:10.37,2013-01-07 20:45:00,
2013-01-07 15:50:00,32.7,25.0,30.25,WSW,248,1.5,2.3,73,0.00,CLR,,0.00,WeatherDisplay:10.37,2013-01-07 20:50:00,
2013-01-07 15:55:00,32.9,25.2,30.25,WNW,292,2.5,2.5,73,0.00,CLR,,0.00,WeatherDisplay:10.37,2013-01-07 20:55:00,
2013-01-07 16:00:00,32.4,24.7,30.25,SW,225,1.5,1.5,73,0.00,CLR,,0.00,WeatherDisplay:10.37,2013-01-07 21:00:00,
2013-01-07 16:05:00,31.8,24.1,30.25,West,270,0.6,2.3,73,0.00,CLR,,0.00,WeatherDisplay:10.37,2013-01-07 21:05:00,
2013-01-07 16:10:00,32.9,25.8,30.25,SSW,202,0.0,1.1,75,0.00,CLR,,0.00,WeatherDisplay:10.37,2013-01-07 21:10:00,
2013-01-07 16:15:00,34.2,27.1,30.25,WSW,248,0.6,1.1,75,0.00,CLR,,0.00,WeatherDisplay:10.37,2013-01-07 21:15:00,
2013-01-07 16:20:00,34.9,27.8,30.25,WSW,248,0.0,0.0,75,0.00,CLR,,0.00,WeatherDisplay:10.37,2013-01-07 21:20:00,
2013-01-07 16:25:00,35.4,27.6,30.25,WSW,248,0.0,1.1,73,0.00,CLR,,0.00,WeatherDisplay:10.37,2013-01-07 21:25:00,
2013-01-07 16:30:00,34.7,26.6,30.25,West,270,0.0,1.1,72,0.00,CLR,,0.00,WeatherDisplay:10.37,2013-01-07 21:30:00,
2013-01-07 16:35:00,34.3,26.2,30.25,West,270,0.0,1.1,72,0.00,CLR,,0.00,WeatherDisplay:10.37,2013-01-07 21:35:00,
2013-01-07 16:40:00,33.4,25.0,30.25,West,270,0.0,0.0,71,0.00,CLR,,0.00,WeatherDisplay:10.37,2013-01-07 21:40:00,
2013-01-07 16:45:00,32.5,24.5,30.24,West,270,0.3,1.1,72,0.00,CLR,,0.00,WeatherDisplay:10.37,2013-01-07 21:45:00,
2013-01-07 16:50:00,31.8,23.8,30.24,West,270,0.6,1.1,72,0.00,CLR,,0.00,WeatherDisplay:10.37,2013-01-07 21:50:00,
2013-01-07 16:55:00,31.3,23.6,30.24,West,270,0.3,0.3,73,0.00,CLR,,0.00,WeatherDisplay:10.37,2013-01-07 21:55:00,
2013-01-07 17:00:00,30.9,23.3,30.25,West,270,0.0,0.0,73,0.00,CLR,,0.00,WeatherDisplay:10.37,2013-01-07 22:00:00,
2013-01-07 17:05:00,30.6,23.3,30.24,West,270,0.0,0.0,74,0.00,CLR,,0.00,WeatherDisplay:10.37,2013-01-07 22:05:00,
2013-01-07 17:10:00,30.0,22.7,30.24,West,270,0.0,0.0,74,0.00,CLR,,0.00,WeatherDisplay:10.37,2013-01-07 22:10:00,
2013-01-07 17:15:00,29.7,22.7,30.24,West,270,0.0,0.0,75,0.00,CLR,,0.00,WeatherDisplay:10.37,2013-01-07 22:15:00,
2013-01-07 17:20:00,29.3,22.4,30.24,West,270,0.0,0.0,75,0.00,CLR,,0.00,WeatherDisplay:10.37,2013-01-07 22:20:00,
2013-01-07 17:25:00,28.8,22.1,30.23,East,90,0.9,1.1,76,0.00,CLR,,0.00,WeatherDisplay:10.37,2013-01-07 22:25:00,
2013-01-07 17:30:00,28.4,21.5,30.23,East,90,0.6,1.1,75,0.00,CLR,,0.00,WeatherDisplay:10.37,2013-01-07 22:30:00,
2013-01-07 17:35:00,28.0,21.1,30.24,SE,135,1.5,1.5,75,0.00,CLR,,0.00,WeatherDisplay:10.37,2013-01-07 22:35:00,
2013-01-07 17:40:00,27.7,20.8,30.24,SE,135,0.0,0.0,75,0.00,CLR,,0.00,WeatherDisplay:10.37,2013-01-07 22:40:00,
2013-01-07 17:45:00,27.3,20.8,30.24,SE,135,0.0,0.0,76,0.00,CLR,,0.00,WeatherDisplay:10.37,2013-01-07 22:45:00,
2013-01-07 17:50:00,27.0,20.4,30.24,SE,135,0.0,0.0,76,0.00,CLR,,0.00,WeatherDisplay:10.37,2013-01-07 22:50:00,
2013-01-07 17:55:00,26.8,20.5,30.24,SE,135,0.0,0.0,77,0.00,CLR,,0.00,WeatherDisplay:10.37,2013-01-07 22:55:00,
2013-01-07 18:00:00,26.4,20.2,30.24,ESE,112,0.0,0.0,77,0.00,CLR,,0.00,WeatherDisplay:10.37,2013-01-07 23:00:00,
2013-01-07 18:05:00,26.2,20.0,30.24,SE,135,3.1,3.1,77,0.00,CLR,,0.00,WeatherDisplay:10.37,2013-01-07 23:05:00,
2013-01-07 18:10:00,25.7,19.5,30.24,SE,135,0.6,1.1,77,0.00,CLR,,0.00,WeatherDisplay:10.37,2013-01-07 23:10:00,
2013-01-07 18:15:00,25.5,19.6,30.24,SE,135,0.0,1.1,78,0.00,CLR,,0.00,WeatherDisplay:10.37,2013-01-07 23:15:00,
2013-01-07 18:20:00,25.2,19.3,30.24,SE,135,0.6,0.6,78,0.00,CLR,,0.00,WeatherDisplay:10.37,2013-01-07 23:20:00,
2013-01-07 18:25:00,24.8,19.2,30.24,ESE,112,1.2,1.2,79,0.00,CLR,,0.00,WeatherDisplay:10.37,2013-01-07 23:25:00,
2013-01-07 18:30:00,24.8,19.2,30.24,ESE,112,1.8,1.8,79,0.00,CLR,,0.00,WeatherDisplay:10.37,2013-01-07 23:30:00,
2013-01-07 18:35:00,24.4,18.9,30.24,ESE,112,1.5,1.5,79,0.00,CLR,,0.00,WeatherDisplay:10.37,2013-01-07 23:35:00,
2013-01-07 18:40:00,24.3,18.7,30.23,ESE,112,2.4,2.4,79,0.00,CLR,,0.00,WeatherDisplay:10.37,2013-01-07 23:40:00,
2013-01-07 18:45:00,23.9,18.3,30.23,SE,135,3.4,3.5,79,0.00,CLR,,0.00,WeatherDisplay:10.37,2013-01-07 23:45:00,
2013-01-07 18:50:00,23.5,18.0,30.24,SE,135,2.1,3.5,79,0.00,CLR,,0.00,WeatherDisplay:10.37,2013-01-07 23:50:00,
2013-01-07 18:55:00,23.4,17.8,30.24,ESE,112,1.5,1.5,79,0.00,CLR,,0.00,WeatherDisplay:10.37,2013-01-07 23:55:00,
2013-01-07 19:00:00,23.4,17.8,30.23,ESE,112,1.5,1.5,79,0.00,CLR,,0.00,WeatherDisplay:10.37,2013-01-08 00:00:00,
2013-01-07 19:05:00,23.4,18.1,30.24,SE,135,0.6,1.1,80,0.00,CLR,,0.00,WeatherDisplay:10.37,2013-01-08 00:05:00,
2013-01-07 19:10:00,23.4,18.1,30.24,ESE,112,1.2,1.2,80,0.00,CLR,,0.00,WeatherDisplay:10.37,2013-01-08 00:10:00,
2013-01-07 19:15:00,23.4,18.1,30.24,ESE,112,1.5,1.5,80,0.00,CLR,,0.00,WeatherDisplay:10.37,2013-01-08 00:15:00,
2013-01-07 19:20:00,23.0,17.7,30.24,ESE,112,1.8,2.3,80,0.00,CLR,,0.00,WeatherDisplay:10.37,2013-01-08 00:20:00,
2013-01-07 19:25:00,22.6,17.4,30.23,ESE,112,1.8,2.3,80,0.00,CLR,,0.00,WeatherDisplay:10.37,2013-01-08 00:25:00,
2013-01-07 19:30:00,22.3,17.0,30.23,ESE,112,1.8,2.3,80,0.00,CLR,,0.00,WeatherDisplay:10.37,2013-01-08 00:30:00,
2013-01-07 19:35:00,21.7,16.5,30.23,ESE,112,0.6,2.3,80,0.00,CLR,,0.00,WeatherDisplay:10.37,2013-01-08 00:35:00,
2013-01-07 19:40:00,21.4,16.5,30.22,ESE,112,2.4,2.4,81,0.00,CLR,,0.00,WeatherDisplay:10.37,2013-01-08 00:40:00,
2013-01-07 19:45:00,21.2,16.3,30.22,ESE,112,2.4,2.4,81,0.00,CLR,,0.00,WeatherDisplay:10.37,2013-01-08 00:45:00,
2013-01-07 19:50:00,21.2,16.3,30.22,ESE,112,0.0,0.0,81,0.00,CLR,,0.00,WeatherDisplay:10.37,2013-01-08 00:50:00,
2013-01-07 19:55:00,21.0,16.1,30.22,ESE,112,0.9,1.1,81,0.00,CLR,,0.00,WeatherDisplay:10.37,2013-01-08 00:55:00,
2013-01-07 20:00:00,20.5,15.6,30.22,ESE,112,0.6,1.1,81,0.00,CLR,,0.00,WeatherDisplay:10.37,2013-01-08 01:00:00,
2013-01-07 20:05:00,20.3,15.4,30.22,ESE,112,1.8,2.3,81,0.00,CLR,,0.00,WeatherDisplay:10.37,2013-01-08 01:05:00,
2013-01-07 20:10:00,19.9,15.3,30.21,ESE,112,0.6,1.1,82,0.00,CLR,,0.00,WeatherDisplay:10.37,2013-01-08 01:10:00,
2013-01-07 20:15:00,19.6,15.0,30.21,ESE,112,1.5,1.5,82,0.00,CLR,,0.00,WeatherDisplay:10.37,2013-01-08 01:15:00,
2013-01-07 20:20:00,19.2,14.6,30.21,ESE,112,0.9,2.3,82,0.00,CLR,,0.00,WeatherDisplay:10.37,2013-01-08 01:20:00,
2013-01-07 20:25:00,19.0,14.4,30.21,ESE,112,0.9,1.1,82,0.00,CLR,,0.00,WeatherDisplay:10.37,2013-01-08 01:25:00,
2013-01-07 20:29:00,19.0,14.4,30.21,ESE,112,0.0,0.0,82,0.00,CLR,,0.00,WeatherDisplay:10.37,2013-01-08 01:29:00,
2013-01-07 20:35:00,19.0,14.4,30.21,ESE,112,0.0,0.0,82,0.00,CLR,,0.00,WeatherDisplay:10.37,2013-01-08 01:35:00,
2013-01-07 20:40:00,19.0,14.4,30.21,ESE,112,0.0,0.0,82,0.00,CLR,,0.00,WeatherDisplay:10.37,2013-01-08 01:40:00,
2013-01-07 20:44:00,18.9,14.3,30.21,ESE,112,0.0,0.0,82,0.00,CLR,,0.00,WeatherDisplay:10.37,2013-01-08 01:44:00,
2013-01-07 20:50:00,18.5,13.9,30.22,ESE,112,0.0,0.0,82,0.00,CLR,,0.00,WeatherDisplay:10.37,2013-01-08 01:50:00,
2013-01-07 20:54:00,18.3,13.7,30.21,ESE,112,0.0,0.0,82,0.00,CLR,,0.00,WeatherDisplay:10.37,2013-01-08 01:54:00,
2013-01-07 20:59:00,18.1,13.3,30.22,ESE,112,0.6,1.1,81,0.00,CLR,,0.00,WeatherDisplay:10.37,2013-01-08 01:59:00,
2013-01-07 21:04:00,17.8,13.2,30.22,ESE,112,0.9,1.1,82,0.00,CLR,,0.00,WeatherDisplay:10.37,2013-01-08 02:04:00,
2013-01-07 21:09:00,17.6,13.0,30.22,ESE,112,0.9,1.1,82,0.00,CLR,,0.00,WeatherDisplay:10.37,2013-01-08 02:09:00,
2013-01-07 21:14:00,17.6,13.0,30.22,ESE,112,0.6,1.1,82,0.00,CLR,,0.00,WeatherDisplay:10.37,2013-01-08 02:14:00,
2013-01-07 21:19:00,17.6,13.0,30.22,ESE,112,1.5,1.5,82,0.00,CLR,,0.00,WeatherDisplay:10.37,2013-01-08 02:19:00,
2013-01-07 21:24:00,17.2,12.7,30.22,ESE,112,1.5,1.5,82,0.00,CLR,,0.00,WeatherDisplay:10.37,2013-01-08 02:24:00,
2013-01-07 21:29:00,17.1,12.5,30.22,ESE,112,0.9,1.1,82,0.00,CLR,,0.00,WeatherDisplay:10.37,2013-01-08 02:29:00,
2013-01-07 21:34:00,16.9,12.3,30.22,ESE,112,0.0,1.1,82,0.00,CLR,,0.00,WeatherDisplay:10.37,2013-01-08 02:34:00,
2013-01-07 21:39:00,16.7,12.4,30.22,ESE,112,0.9,1.1,83,0.00,CLR,,0.00,WeatherDisplay:10.37,2013-01-08 02:39:00,
2013-01-07 21:44:00,16.5,12.3,30.22,ESE,112,1.5,1.5,83,0.00,CLR,,0.00,WeatherDisplay:10.37,2013-01-08 02:44:00,
2013-01-07 21:49:00,16.5,12.3,30.21,ESE,112,1.2,1.2,83,0.00,CLR,,0.00,WeatherDisplay:10.37,2013-01-08 02:49:00,
2013-01-07 21:54:00,16.3,12.1,30.21,ESE,112,2.1,2.1,83,0.00,CLR,,0.00,WeatherDisplay:10.37,2013-01-08 02:54:00,
2013-01-07 21:59:00,16.2,11.9,30.21,ESE,112,1.2,1.2,83,0.00,CLR,,0.00,WeatherDisplay:10.37,2013-01-08 02:59:00,
2013-01-07 22:04:00,16.2,11.9,30.21,ESE,112,1.2,1.2,83,0.00,CLR,,0.00,WeatherDisplay:10.37,2013-01-08 03:04:00,
2013-01-07 22:09:00,16.3,12.4,30.21,ESE,112,0.9,1.1,84,0.00,CLR,,0.00,WeatherDisplay:10.37,2013-01-08 03:09:00,
2013-01-07 22:14:00,16.3,12.4,30.21,ESE,112,0.6,1.1,84,0.00,CLR,,0.00,WeatherDisplay:10.37,2013-01-08 03:14:00,
2013-01-07 22:19:00,16.3,12.4,30.21,ESE,112,0.6,1.1,84,0.00,CLR,,0.00,WeatherDisplay:10.37,2013-01-08 03:19:00,
2013-01-07 22:24:00,16.5,12.5,30.21,ESE,112,1.2,1.2,84,0.00,CLR,,0.00,WeatherDisplay:10.37,2013-01-08 03:24:00,
2013-01-07 22:29:00,16.9,12.9,30.21,ESE,112,2.1,2.3,84,0.00,CLR,,0.00,WeatherDisplay:10.37,2013-01-08 03:29:00,
2013-01-07 22:34:00,16.9,12.9,30.21,ESE,112,1.2,1.2,84,0.00,CLR,,0.00,WeatherDisplay:10.37,2013-01-08 03:34:00,
2013-01-07 22:39:00,16.9,12.9,30.21,ESE,112,1.5,1.5,84,0.00,CLR,,0.00,WeatherDisplay:10.37,2013-01-08 03:39:00,
2013-01-07 22:44:00,16.7,12.7,30.21,ESE,112,1.5,2.3,84,0.00,CLR,,0.00,WeatherDisplay:10.37,2013-01-08 03:44:00,
2013-01-07 22:49:00,16.5,12.5,30.20,ESE,112,0.9,1.1,84,0.00,CLR,,0.00,WeatherDisplay:10.37,2013-01-08 03:49:00,
2013-01-07 22:54:00,16.5,12.5,30.20,ESE,112,2.1,2.3,84,0.00,CLR,,0.00,WeatherDisplay:10.37,2013-01-08 03:54:00,
2013-01-07 22:59:00,16.5,12.8,30.20,ESE,112,0.9,2.3,85,0.00,CLR,,0.00,WeatherDisplay:10.37,2013-01-08 03:59:00,
2013-01-07 23:04:00,16.9,13.2,30.20,ESE,112,0.6,1.1,85,0.00,CLR,,0.00,WeatherDisplay:10.37,2013-01-08 04:04:00,
2013-01-07 23:09:00,17.1,13.3,30.19,ESE,112,2.1,2.3,85,0.00,CLR,,0.00,WeatherDisplay:10.37,2013-01-08 04:09:00,
2013-01-07 23:14:00,17.2,13.5,30.19,ESE,112,2.4,2.4,85,0.00,CLR,,0.00,WeatherDisplay:10.37,2013-01-08 04:14:00,
2013-01-07 23:19:00,17.2,13.5,30.19,ESE,112,1.2,1.2,85,0.00,CLR,,0.00,WeatherDisplay:10.37,2013-01-08 04:19:00,
2013-01-07 23:24:00,17.2,13.5,30.19,ESE,112,1.5,2.3,85,0.00,CLR,,0.00,WeatherDisplay:10.37,2013-01-08 04:24:00,
2013-01-07 23:29:00,17.1,13.3,30.19,ESE,112,2.5,2.5,85,0.00,CLR,,0.00,WeatherDisplay:10.37,2013-01-08 04:29:00,
2013-01-07 23:34:00,17.1,13.3,30.18,ESE,112,1.5,1.5,85,0.00,CLR,,0.00,WeatherDisplay:10.37,2013-01-08 04:34:00,
2013-01-07 23:39:00,17.1,13.3,30.18,ESE,112,2.5,3.5,85,0.00,CLR,,0.00,WeatherDisplay:10.37,2013-01-08 04:39:00,
2013-01-07 23:44:00,17.4,13.9,30.18,ESE,112,2.8,3.5,86,0.00,CLR,,0.00,WeatherDisplay:10.37,2013-01-08 04:44:00,
2013-01-07 23:49:00,17.8,14.3,30.18,ESE,112,1.5,2.3,86,0.00,CLR,,0.00,WeatherDisplay:10.37,2013-01-08 04:49:00,
2013-01-07 23:54:00,18.3,14.8,30.17,SE,135,0.9,2.3,86,0.00,CLR,,0.00,WeatherDisplay:10.37,2013-01-08 04:54:00,
2013-01-07 23:59:00,18.7,15.5,30.17,ESE,112,0.9,1.1,87,0.00,CLR,,0.00,WeatherDisplay:10.37,2013-01-08 04:59:00,